Ranger, Texas
Current Conditions -  °F | °C
As of 6:35 AM on Monday 22 Dec 2014 (Local Time) from KBKD Reporting Station
Clear Clear  
Wind Chill: 51°   Ceiling: Unl
Heat Index: 51°   Visibility: 7mi
Dew Point: 41°   Wind: 7mph
Humidity: 69%   Direction: 240°WSW
Pressure: 29.57"   Gusts: NA
Location:  32.47°N, 98.68°W
Report Text: KBKD 221235Z AUTO 24006KT 7SM CLR 11/05 A2957 RMK AO2 T01050051
Loading
Personal Weather Stations






























Interactive Weather Map New forecast layout! Learn more

10-Day Weather Forecast

Advertisements
Track Severe Weather on mobile